createdAt,value
2019-05-06T00:04:05.174Z,35.48
2019-05-06T00:09:08.813Z,35.53
2019-05-06T00:14:14.143Z,35.53
2019-05-06T00:19:17.461Z,35.58
2019-05-06T00:24:23.847Z,35.59
2019-05-06T00:29:28.683Z,35.61
2019-05-06T00:34:33.976Z,35.62
2019-05-06T00:39:44.276Z,35.64
2019-05-06T00:44:47.281Z,35.65
2019-05-06T00:49:50.757Z,35.71
2019-05-06T00:54:58.404Z,35.70
2019-05-06T01:00:04.163Z,35.72
2019-05-06T01:05:08.082Z,35.73
2019-05-06T01:10:13.872Z,35.76
2019-05-06T01:15:23.854Z,35.76
2019-05-06T01:20:27.395Z,35.80
2019-05-06T01:25:30.876Z,35.80
2019-05-06T01:30:34.372Z,35.83
2019-05-06T01:35:37.856Z,35.84
2019-05-06T01:40:44.003Z,35.87
2019-05-06T01:45:47.555Z,35.90
2019-05-06T01:50:51.064Z,35.90
2019-05-06T01:55:54.654Z,35.93
2019-05-06T02:00:58.194Z,35.96
2019-05-06T02:06:01.824Z,35.97
2019-05-06T02:11:05.358Z,35.97
2019-05-06T02:16:08.988Z,36.00
2019-05-06T02:21:14.090Z,36.00
2019-05-06T02:26:19.127Z,36.02
2019-05-06T02:31:40.696Z,36.06
2019-05-06T02:36:48.739Z,36.07
2019-05-06T02:41:54.870Z,36.11
2019-05-06T02:47:15.388Z,36.12
2019-05-06T02:52:18.860Z,36.12
2019-05-06T02:57:23.816Z,36.16
2019-05-06T03:02:39.775Z,36.19
2019-05-06T03:07:35.328Z,36.21
2019-05-06T03:12:38.023Z,36.23
2019-05-06T03:17:43.507Z,36.26
2019-05-06T03:22:54.100Z,36.26
2019-05-06T03:27:56.241Z,36.29
2019-05-06T03:33:30.909Z,36.31
2019-05-06T03:38:04.934Z,36.32
2019-05-06T03:43:08.415Z,36.35
2019-05-06T03:48:16.540Z,36.32
2019-05-06T03:53:23.078Z,36.33
2019-05-06T03:58:27.430Z,36.04
2019-05-06T04:03:44.088Z,36.01
2019-05-06T04:08:37.065Z,36.04
2019-05-06T04:13:43.560Z,36.18
2019-05-06T04:18:47.469Z,36.29
2019-05-06T04:23:58.869Z,36.38
2019-05-06T04:29:03.999Z,36.58
2019-05-06T04:34:14.619Z,36.62
2019-05-06T04:39:13.827Z,36.64
2019-05-06T04:49:20.339Z,36.67
2019-05-06T04:54:26.566Z,36.74
2019-05-06T04:59:29.446Z,36.76
2019-05-06T05:04:36.780Z,36.46
2019-05-06T05:09:38.875Z,36.00
2019-05-06T05:14:59.736Z,35.59
2019-05-06T05:20:03.744Z,35.30
2019-05-06T05:25:07.747Z,35.00
2019-05-06T05:30:12.454Z,34.57
2019-05-06T05:35:15.990Z,34.27
2019-05-06T05:40:19.459Z,34.06
2019-05-06T05:45:22.925Z,33.80
2019-05-06T05:50:28.078Z,33.67
2019-05-06T05:55:33.015Z,33.58
2019-05-06T06:00:36.858Z,33.42
2019-05-06T06:05:42.651Z,33.37
2019-05-06T06:10:47.500Z,33.31
2019-05-06T06:15:52.618Z,33.29
2019-05-06T06:21:17.662Z,33.25
2019-05-06T06:26:09.071Z,33.26
2019-05-06T06:31:14.184Z,33.32
2019-05-06T06:36:23.072Z,33.35
2019-05-06T06:41:26.679Z,33.31
2019-05-06T06:46:32.221Z,33.16
2019-05-06T06:51:35.544Z,32.87
2019-05-06T06:56:43.335Z,32.88
2019-05-06T07:01:48.888Z,32.88
2019-05-06T07:06:54.006Z,28.23
2019-05-06T07:11:57.481Z,27.09
2019-05-06T07:17:02.422Z,26.74
2019-05-06T07:22:07.044Z,28.15
2019-05-06T07:27:15.076Z,28.80
2019-05-06T07:32:18.559Z,29.50
2019-05-06T07:37:22.232Z,29.85
2019-05-06T07:42:27.420Z,30.16
2019-05-06T07:47:44.764Z,30.49
2019-05-06T07:53:06.371Z,30.68
2019-05-06T07:58:09.855Z,30.99
2019-05-06T08:03:14.201Z,31.31
2019-05-06T08:08:18.075Z,31.71
2019-05-06T08:13:22.619Z,32.04
2019-05-06T08:18:26.152Z,32.26
2019-05-06T08:23:34.017Z,32.41
2019-05-06T08:28:41.157Z,32.62
2019-05-06T08:33:43.169Z,32.87
2019-05-06T08:38:56.585Z,33.36
2019-05-06T08:44:02.401Z,33.74
2019-05-06T08:49:05.248Z,34.21
2019-05-06T08:54:10.350Z,34.66
2019-05-06T08:59:14.096Z,34.45
2019-05-06T09:04:17.730Z,34.36
2019-05-06T09:09:22.376Z,34.26
2019-05-06T09:14:26.038Z,34.07
2019-05-06T09:19:29.503Z,34.03
2019-05-06T09:24:32.974Z,34.09
2019-05-06T09:29:44.073Z,34.22
2019-05-06T09:34:54.821Z,34.42
2019-05-06T09:39:58.355Z,34.33
2019-05-06T09:45:02.424Z,34.33
2019-05-06T09:50:09.472Z,33.78
2019-05-06T09:55:23.850Z,33.55
2019-05-06T10:00:29.696Z,33.40
2019-05-06T10:05:33.230Z,33.19
2019-05-06T10:10:36.695Z,33.13
2019-05-06T10:15:40.232Z,33.07
2019-05-06T10:20:46.532Z,32.98
2019-05-06T10:25:52.194Z,33.18
2019-05-06T10:30:55.191Z,33.20
2019-05-06T10:36:02.479Z,32.63
2019-05-06T10:41:08.538Z,31.59
2019-05-06T10:46:13.199Z,31.18
2019-05-06T10:51:18.413Z,30.52
2019-05-06T10:56:31.976Z,30.14
2019-05-06T11:01:36.354Z,29.63
2019-05-06T11:06:39.819Z,29.24
2019-05-06T11:11:43.286Z,29.01
2019-05-06T11:16:46.753Z,28.76
2019-05-06T11:21:52.928Z,28.73
2019-05-06T11:26:55.410Z,28.78
2019-05-06T11:32:02.407Z,28.97
2019-05-06T11:37:25.217Z,29.17
2019-05-06T11:42:32.472Z,29.21
2019-05-06T11:47:33.883Z,28.98
2019-05-06T11:52:37.347Z,28.68
2019-05-06T11:57:44.708Z,28.68
2019-05-06T12:02:48.817Z,28.91
2019-05-06T12:08:01.787Z,28.96
2019-05-06T12:12:57.812Z,29.02
2019-05-06T12:18:03.665Z,29.18
2019-05-06T12:23:06.461Z,28.80
2019-05-06T12:28:12.255Z,28.57
2019-05-06T12:33:28.950Z,28.61
2019-05-06T12:38:34.051Z,28.37
2019-05-06T12:43:39.155Z,26.74
2019-05-06T12:48:44.264Z,22.91
2019-05-06T12:53:47.723Z,24.06
2019-05-06T12:58:52.538Z,24.90
2019-05-06T13:03:56.144Z,25.18
2019-05-06T13:09:02.369Z,25.28
2019-05-06T13:14:04.970Z,25.62
2019-05-06T13:19:08.514Z,26.24
2019-05-06T13:24:12.291Z,26.72
2019-05-06T13:29:17.548Z,27.08
2019-05-06T13:34:23.220Z,27.53
2019-05-06T13:39:26.213Z,27.73
2019-05-06T13:44:31.890Z,27.88
2019-05-06T13:49:36.504Z,28.17
2019-05-06T13:54:41.970Z,28.89
2019-05-06T13:59:45.245Z,29.35
2019-05-06T14:04:52.481Z,29.63
2019-05-06T14:09:54.650Z,29.90
2019-05-06T14:14:58.115Z,30.16
2019-05-06T14:20:02.608Z,30.40
2019-05-06T14:25:23.296Z,30.57
2019-05-06T14:30:34.325Z,30.74
2019-05-06T14:35:37.791Z,30.91
2019-05-06T14:40:58.824Z,31.05
2019-05-06T14:46:02.662Z,31.15
2019-05-06T14:51:06.129Z,31.29
2019-05-06T14:56:26.278Z,31.41
2019-05-06T15:01:29.749Z,31.44
2019-05-06T15:06:33.751Z,31.44
2019-05-06T15:11:37.212Z,31.76
2019-05-06T15:16:42.297Z,31.98
2019-05-06T15:21:45.898Z,32.02
2019-05-06T15:26:49.363Z,32.13
2019-05-06T15:31:54.551Z,32.20
2019-05-06T15:37:08.593Z,32.19
2019-05-06T15:42:12.815Z,32.30
2019-05-06T15:47:16.510Z,32.27
2019-05-06T15:52:19.975Z,32.27
2019-05-06T15:57:23.450Z,32.28
2019-05-06T16:02:26.913Z,32.27
2019-05-06T16:07:34.223Z,32.29
2019-05-06T16:12:35.570Z,32.29
2019-05-06T16:17:39.040Z,32.45
2019-05-06T16:22:44.552Z,33.01
2019-05-06T16:27:52.143Z,33.73
2019-05-06T16:32:54.951Z,34.46
2019-05-06T16:37:58.424Z,35.00
2019-05-06T16:43:02.089Z,35.31
2019-05-06T16:48:05.697Z,35.63
2019-05-06T16:53:09.167Z,35.71
2019-05-06T16:58:14.279Z,35.68
2019-05-06T17:03:24.804Z,35.66
2019-05-06T17:08:28.279Z,35.65
2019-05-06T17:13:33.673Z,35.66
2019-05-06T17:18:36.925Z,35.63
2019-05-06T17:23:42.388Z,35.62
2019-05-06T17:28:55.700Z,35.63
2019-05-06T17:34:06.874Z,35.63
2019-05-06T17:39:11.278Z,35.66
2019-05-06T17:44:14.751Z,35.68
2019-05-06T17:49:23.660Z,35.75
2019-05-06T17:54:27.204Z,35.76
2019-05-06T17:59:32.563Z,35.78
2019-05-06T18:04:35.856Z,35.83
2019-05-06T18:09:39.340Z,35.83
2019-05-06T18:14:43.447Z,35.85
2019-05-06T18:19:47.413Z,35.86
2019-05-06T18:24:52.570Z,35.91
2019-05-06T18:30:10.167Z,35.95
2019-05-06T18:35:02.656Z,36.01
2019-05-06T18:40:06.609Z,36.07
2019-05-06T18:45:12.241Z,36.13
2019-05-06T18:50:15.922Z,36.20
2019-05-06T18:55:19.391Z,36.21
2019-05-06T19:00:23.104Z,36.26
2019-05-06T19:05:42.706Z,36.27
2019-05-06T19:10:45.653Z,36.30
2019-05-06T19:15:49.117Z,36.34
2019-05-06T19:20:53.421Z,36.34
2019-05-06T19:25:56.885Z,36.37
2019-05-06T19:31:02.949Z,36.40
2019-05-06T19:36:05.544Z,36.41
2019-05-06T19:46:12.109Z,36.48
2019-05-06T19:51:15.749Z,36.52
2019-05-06T19:56:19.213Z,36.52
2019-05-06T20:01:23.018Z,36.51
2019-05-06T20:06:46.462Z,36.50
2019-05-06T20:11:51.975Z,36.50
2019-05-06T20:16:55.411Z,36.49
2019-05-06T20:21:58.876Z,36.50
2019-05-06T20:27:02.524Z,36.51
2019-05-06T20:32:05.993Z,36.51
2019-05-06T20:37:09.462Z,36.51
2019-05-06T20:42:13.007Z,36.50
2019-05-06T20:47:16.540Z,36.52
2019-05-06T20:52:20.000Z,36.51
2019-05-06T20:57:23.467Z,36.51
2019-05-06T21:02:26.929Z,36.52
2019-05-06T21:07:32.308Z,36.52
2019-05-06T21:12:35.659Z,36.51
2019-05-06T21:17:41.830Z,36.52
2019-05-06T21:22:44.887Z,36.53
2019-05-06T21:27:48.350Z,36.53
2019-05-06T21:32:52.163Z,36.55
2019-05-06T21:37:55.665Z,36.56
2019-05-06T21:42:59.129Z,36.56
2019-05-06T21:48:02.993Z,36.57
2019-05-06T21:53:06.563Z,36.59
2019-05-06T21:58:12.257Z,36.58
2019-05-06T22:03:15.392Z,36.59
2019-05-06T22:08:18.859Z,36.61
2019-05-06T22:13:22.333Z,36.60
2019-05-06T22:18:25.956Z,36.61
2019-05-06T22:23:32.840Z,36.61
2019-05-06T22:28:36.403Z,36.62
2019-05-06T22:33:39.875Z,36.63
2019-05-06T22:38:44.246Z,36.65
2019-05-06T22:43:47.991Z,36.66
2019-05-06T22:48:54.109Z,36.66
2019-05-06T22:53:56.643Z,36.69
2019-05-06T22:59:00.105Z,36.64
2019-05-06T23:04:04.012Z,36.70
2019-05-06T23:09:09.187Z,36.68
2019-05-06T23:14:27.629Z,36.70
2019-05-06T23:19:17.840Z,36.71
2019-05-06T23:24:22.517Z,36.70
2019-05-06T23:29:26.165Z,36.72
2019-05-06T23:34:29.626Z,36.69
2019-05-06T23:40:14.136Z,36.69
2019-05-06T23:45:54.451Z,36.71
2019-05-06T23:51:34.218Z,36.72
2019-05-06T23:56:45.520Z,36.76
